Minneapolis, MN (55423)

3:08 AM CDT on September 02, 2015 (GMT -0500)
Richfield Gardens | | Change Station
CLOSE
Current Station
Personal Weather Station
Location: Minneapolis, MN
Elevation: 899 ft
Nearby Weather Stations

Elev 899 ft 44.89 °N, 93.32 °W | Updated 14 minutes ago

Light Rain
Light Rain Mist
74.1 °F
Feels Like 71 °F
N
0.0
Wind Variable Wind from SW

Today
High -- | Low -- °F
--% Chance of Precip.
Yesterday
High -- | Low -- °F
Precip. -- in
6:36 AM 7:48 PM
Waning Gibbous, 82% visible
Pressure 29.90 in
Visibility 6.0 miles
Clouds Few 7500 ft
Mostly Cloudy 11000 ft
Overcast 20000 ft
Heat Index 71 °F
Dew Point 74 °F
Humidity 98%
Rainfall 0.07 in
Snow Depth Not available.
UV 0 out of 12
Pollen 9.70 out of 12
Air Quality Not available.
Flu Activity Not available.
METAR KMSP 020753Z 00000KT 6SM -RA BR FEW075 BKN110 OVC200 24/23 A2992 RMK AO2 LTG DSNT W AND NW SLP124 P0003 T02440228
Pressure 29.90 in
Visibility 6.0 miles
Clouds Few 7500 ft
Mostly Cloudy 11000 ft
Overcast 20000 ft
Heat Index 71 °F
Dew Point 74 °F
Humidity 98%
Rainfall 0.07 in
Snow Depth Not available.
UV 0 out of 12
Pollen 9.70 out of 12
Air Quality Not available.
Flu Activity Not available.
METAR KMSP 020753Z 00000KT 6SM -RA BR FEW075 BKN110 OVC200 24/23 A2992 RMK AO2 LTG DSNT W AND NW SLP124 P0003 T02440228

10-Day Weather Forecast

×

Almanac

Astronomy

Sep. 02, 2015 Rise Set
Actual Time
Civil Twilight
Nautical Twilight
Astronomical Twilight
Moon
Length of Visible Light
Length of Day
Tomorrow will be .
, % of the Moon is Illuminated

Today's Extremes

State Highs State Lows

Community

WunderPhotos

Upload Photos

1,851,727 photos uploaded!

WunderBlogs® & News

Nearby

Air Quality

  Air Quality AQ Index Pollutant
Not available.

Snow Depth

Station Depth Elevation

Earthquake Activity

City Distance Mag. Time & Date
Minimum magnitude displayed is 2.5.

Coastal Water Temperatures

Place Temperature

Stations

Nearby Weather Stations

Station Location Temp. Windchill Dew Point Humidity Wind Precip. Elev Updated Type